Thomas Hamilton

Olheiro-Chefe - Newcastle United
16 Dez 2027
Quinta-feira
Processo

Personalidade

Adaptabilidade (4) Ambição (12) Controvérsia (14) Lealdade (16) Pressão (3) Profissionalismo (16) Espírito Esportivo (20) Temperamento (18)

Perfil

Estilo de Treinamento Democrático
Licença Continental Pro
Determinação 8
Gestão de Pessoas 14
Motivação 16
Disciplina 9
Satisfação no Trabalho
100%
Fadiga
0%
Função Olheiro-Chefe
Salário 106.1K p/s
Contrato 14.03.2028

Desempenho

Comportamento Bom
Eficácia do Treinamento
65%
Desenvolvimento do Jogador
30%
Prevenção de Lesões
40%
Implementação Tática
75%

Eventos Recentes

Participou de uma reunião de recrutamento agora
Recomendou um alvo de transferência agora
Participou de uma reunião de recrutamento agora
Participou de uma reunião de recrutamento 7d atrás
Recomendou um alvo de transferência 7d atrás
Participou de uma reunião de recrutamento 7d atrás
Recomendou um alvo de transferência 7d atrás
Recomendou um alvo de transferência 7d atrás

Monitorando agora

107
Jogador Clube Status Habilidade Confiança Observado Última observação Último voto
Kenan Yıldız Juventus Perdido 173 / 165 40% 3 17.08.2027 -
Gonçalo Ramos AC Milan Ativo 151 / 155 40% 2 17.08.2027 -
Dušan Vlahović Juventus Ativo 169 / 165 40% 1 17.08.2027 -
Luis Vázquez Birmingham Ativo 125 / 137 65% 1 28.06.2027 Aprovar
Assane Diao Lazio Ativo 147 / 154 40% 7 23.06.2027 -
Caleb Yirenkyi Coventry City Ativo 131 / 142 40% 4 23.06.2027 -
Jayden Addai Como Ativo 127 / 141 40% 6 23.06.2027 -
Amaury Morales Pumas UNAM Ativo 118 / 137 40% 1 15.06.2027 -
Mateus Mané Manchester United Ativo 128 / 137 40% 1 15.06.2027 -
Rayan Bournemouth Ativo 133 / 150 40% 9 14.06.2027 -
Ryan Alebiosu Blackburn Rovers Ativo 122 / 119 65% 1 14.06.2027 Aprovar
Josh King Chelsea Ativo 148 / 137 40% 9 13.06.2027 -
Jorrel Hato Chelsea Ativo 140 / 154 40% 4 13.06.2027 -
Christos Mouzakitis Hull City Ativo 123 / 132 40% 6 13.06.2027 -
Othmane Maamma Watford Ativo 128 / 131 40% 15 12.06.2027 -
Jofre Torrents Ajax Ativo 119 / 129 40% 4 12.06.2027 -
Alphadjo Cissé Como Ativo 128 / 121 40% 2 11.06.2027 -
Sascha Britschgi Padova Ativo 111 / 120 40% 4 11.06.2027 -
Oscar Schwartau Norwich City Ativo 120 / 127 40% 4 10.06.2027 -
Gilberto Mora Atlético Madrid Ativo 123 / 145 40% 5 10.06.2027 -
Ethan Williams Peterborough United Ativo 114 / 119 40% 7 09.06.2027 -
Matías Gómez Granada Negociando 114 / 122 40% 5 01.06.2027 -
Gonçalo Oliveira Benfica Ativo 103 / 110 40% 1 01.06.2027 -
Bryan Mbeumo Manchester United Ativo 152 / 159 40% 1 31.05.2027 -
Victor Osimhen Manchester United Ativo 173 / 169 40% 1 31.05.2027 -
Mfundo Vilakazi Kaizer Chiefs Ativo 125 / 116 40% 7 30.05.2027 -
Ibrahim Maza Bayer Leverkusen Ativo 153 / 154 40% 4 28.05.2027 -
Jesús Rodríguez Como Ativo 151 / 151 40% 10 27.05.2027 -
Shea Lacey Wolverhampton Ativo 121 / 124 40% 7 22.05.2027 -
Christ Inao Oulaï Fiorentina Ativo 128 / 129 40% 2 22.05.2027 -
Ben Gannon Doak Bournemouth Ativo 140 / 150 40% 4 19.05.2027 -
Rodrigo Mora AS Roma Ativo 143 / 143 40% 2 12.05.2027 -
Davide Bartesaghi AC Milan Ativo 126 / 128 40% 2 12.05.2027 -
Alex Amorim Genoa Ativo 130 / 144 40% 5 10.05.2027 -
Kutlwano Letlhaku Ajax Cape Town Ativo 108 / 121 40% 3 06.05.2027 -
Leo Castledine Middlesbrough Ativo 129 / 143 40% 7 03.05.2027 -
Yussif Saidu Zaragoza Ativo 127 / 120 40% 3 01.05.2027 -
Cyriaque Irié VfL Wolfsburg Ativo 116 / 115 40% 4 01.05.2027 -
David Ozoh Derby County Ativo 124 / 130 40% 5 30.04.2027 -
Jan Bürger Gillingham Ativo 101 / 111 40% 1 26.04.2027 -
Edvin Austbø West Ham United Ativo 125 / 121 40% 3 25.04.2027 -
Rocco Vata Watford Ativo 125 / 124 40% 2 06.04.2027 -
Jack Hinshelwood Brighton Ativo 146 / 144 40% 2 31.03.2027 -
Malick Fofana Sunderland Ativo 152 / 147 40% 2 22.03.2027 Mais informações
Nico O'Reilly Manchester City Ativo 155 / 161 40% 2 14.03.2027 -
Matvey Kislyak CSKA Moscow Ativo 140 / 133 40% 1 13.03.2027 -
Matheus Gonçalves Al-Ahli Ativo 129 / 129 40% 1 05.03.2027 -
Diogo Costa Manchester City Ativo 153 / 151 40% 4 26.01.2027 -
Kostantis Tzolakis Hull City Ativo 146 / 152 40% 1 26.01.2027 -
Anatolii Trubin Juventus Ativo 153 / 164 40% 1 18.01.2027 -
Nicolás Fernández Mercau Shakhtar Ativo 145 / 146 40% 3 07.01.2027 -
Mduduzi Shabalala Kaizer Chiefs Ativo 105 / 119 40% 1 07.01.2027 -
Konstantin Tyukavin Inter Negociando 132 / 133 66% 1 01.01.2027 -
Fotis Ioannidis Rio Ave Ativo 136 / 136 67% 1 01.01.2027 Aprovar
Bradley Barcola Liverpool Ativo 173 / 172 40% 2 31.12.2026 -
Georginio Rutter Brighton Ativo 137 / 136 40% 3 30.12.2026 -
Bongani Modiba Black Aces Ativo 111 / 129 40% 1 28.12.2026 -
Siyanda Ndlovu Bloemfontein Celtic Ativo 131 / 128 40% 2 27.12.2026 -
Antoine Semenyo Manchester City Ativo 158 / 170 40% 3 26.12.2026 -
Nicolas Jackson Aston Villa Ativo 143 / 159 40% 2 26.12.2026 -
Matheus Cunha Manchester United Ativo 168 / 154 40% 2 23.12.2026 -
Gabriel Martinelli Brighton Ativo 172 / 149 40% 7 22.12.2026 -
Oswin Appollis Orlando Pirates Ativo 128 / 131 40% 2 21.12.2026 -
Boubacar Kamara Aston Villa Ativo 175 / 173 40% 2 19.12.2026 -
Moisés Caicedo Chelsea Ativo 179 / 170 40% 2 17.12.2026 -
Xavi Simons Tottenham Ativo 158 / 155 40% 1 16.12.2026 -
Marcelo Allende Mamelodi Sundowns Ativo 118 / 123 40% 5 13.12.2026 -
Marquinhos Spartak Moscow Ativo 129 / 125 40% 1 13.12.2026 -
Oston O'runov Persepolis Ativo 115 / 105 40% 1 11.12.2026 -
Mandla Erasmus SuperSport United Ativo 113 / 135 40% 2 07.12.2026 -
João Pedro Chelsea Ativo 161 / 151 40% 1 06.12.2026 -
Kai Havertz Arsenal Ativo 166 / 164 40% 1 03.12.2026 -
Tshepang Moremi Orlando Pirates Ativo 123 / 109 40% 2 29.11.2026 -
Mason Mount Manchester United Ativo 159 / 160 40% 1 26.11.2026 -
Declan Rice Arsenal Ativo 187 / 198 40% 4 22.11.2026 -
Phil Foden Manchester City Ativo 164 / 183 40% 3 20.11.2026 -
Carlos Vicente Birmingham Ativo 133 / 129 40% 1 19.11.2026 -
Jérémy Doku Manchester City Ativo 155 / 175 40% 1 15.11.2026 -
Alexis Mac Allister Liverpool Ativo 160 / 161 40% 1 11.11.2026 -
Bénie Traoré New York City Ativo 134 / 126 40% 1 09.11.2026 -
Amad Manchester United Ativo 162 / 146 40% 1 03.11.2026 -
James Trafford Leeds United Ativo 137 / 151 40% 2 26.10.2026 -
Caoimhin Kelleher Brentford Ativo 155 / 156 40% 2 25.10.2026 -
Martin Ødegaard Arsenal Ativo 186 / 189 40% 3 16.10.2026 -
Tomás Chancalay Minnesota United FC Ativo 124 / 122 40% 1 14.10.2026 -
Paxten Aaronson Colorado Rapids Ativo 144 / 123 40% 1 14.10.2026 -
Iván Angulo Orlando City Ativo 136 / 141 40% 2 10.10.2026 -
Diego Luna Real Salt Lake Ativo 121 / 141 40% 2 09.10.2026 -
Marco Pašalić Orlando City Ativo 131 / 140 40% 1 03.10.2026 -
Antonio Galeano Remo Stars Ativo 134 / 112 40% 2 01.10.2026 -
Gabriel Pirani San Diego Football Club Ativo 137 / 122 40% 1 28.09.2026 -
Tadeo Allende Inter Miami CF Ativo 123 / 134 40% 1 27.09.2026 -
Jesus Ferreira Seattle Sounders Ativo 142 / 112 40% 1 26.09.2026 -
Duncan McGuire Houston Dynamo Ativo 112 / 118 40% 2 23.09.2026 -
Ho-yeon Jung Minnesota United FC Ativo 115 / 134 40% 1 23.09.2026 -
Elias Achouri San Diego Football Club Ativo 125 / 139 40% 1 18.09.2026 -
Djordje Mihailović Toronto FC Ativo 119 / 124 40% 1 16.09.2026 -
Juan Manuel Sanabria Real Salt Lake Ativo 138 / 128 40% 1 16.09.2026 -
Facundo Mura Inter Miami CF Ativo 139 / 119 40% 3 15.09.2026 -
James Sands New York City Ativo 112 / 125 40% 1 15.09.2026 -
Antony Portland Timbers Ativo 119 / 115 40% 1 08.09.2026 -
Kimito Nono Sanfrecce Hiroshima Ativo 130 / 117 40% 1 07.09.2026 -
El Hadji Malick Diouf Brentford Ativo 142 / 142 40% 1 17.08.2026 -
Marcus Rashford Manchester United Ativo 152 / 143 40% 1 05.08.2026 -
Hugo Ekitiké Liverpool Ativo 162 / 160 40% 1 05.08.2026 -
Mohammed Kudus Tottenham Ativo 164 / 158 40% 1 03.08.2026 -
Steven Bergwijn Al-Ittihad Ativo 131 / 134 40% 1 03.08.2026 -